createdAt,value
2022-11-21T00:01:21.432Z,6.32
2022-11-21T00:03:50.155Z,6.42
2022-11-21T00:06:18.875Z,6.52
2022-11-21T00:08:51.079Z,6.67
2022-11-21T00:11:18.708Z,6.85
2022-11-21T00:13:47.268Z,6.99
2022-11-21T00:16:18.807Z,7.21
2022-11-21T00:18:46.697Z,7.31
2022-11-21T00:21:19.306Z,7.17
2022-11-21T00:23:48.018Z,7.03
2022-11-21T00:26:16.836Z,6.90
2022-11-21T00:28:49.113Z,6.78
2022-11-21T00:31:23.103Z,6.66
2022-11-21T00:33:53.154Z,6.54
2022-11-21T00:36:23.068Z,6.44
2022-11-21T00:38:51.154Z,6.28
2022-11-21T00:41:18.744Z,6.23
2022-11-21T00:43:46.274Z,6.23
2022-11-21T00:46:13.876Z,6.15
2022-11-21T00:48:42.477Z,6.09
2022-11-21T00:51:11.592Z,5.95
2022-11-21T00:53:39.554Z,5.99
2022-11-21T00:56:07.096Z,5.97
2022-11-21T00:58:35.249Z,5.85
2022-11-21T01:01:12.448Z,5.88
2022-11-21T01:03:40.961Z,6.00
2022-11-21T01:06:11.306Z,5.97
2022-11-21T01:08:41.373Z,5.90
2022-11-21T01:11:12.108Z,5.79
2022-11-21T01:13:41.721Z,5.72
2022-11-21T01:16:16.111Z,5.69
2022-11-21T01:18:45.020Z,5.72
2022-11-21T01:21:21.248Z,5.69
2022-11-21T01:23:49.428Z,5.69
2022-11-21T01:26:20.604Z,5.70
2022-11-21T01:28:48.811Z,5.68
2022-11-21T01:31:18.602Z,5.68
2022-11-21T01:33:47.003Z,5.62
2022-11-21T01:36:16.695Z,5.45
2022-11-21T01:38:45.595Z,5.39
2022-11-21T01:41:15.173Z,5.40
2022-11-21T01:43:42.957Z,5.40
2022-11-21T01:46:14.966Z,5.38
2022-11-21T01:48:58.752Z,5.49
2022-11-21T01:51:33.274Z,5.47
2022-11-21T01:54:07.330Z,5.56
2022-11-21T01:56:44.210Z,5.58
2022-11-21T01:59:17.390Z,5.53
2022-11-21T02:01:46.306Z,5.61
2022-11-21T02:04:14.381Z,5.65
2022-11-21T02:06:44.849Z,5.56
2022-11-21T02:09:12.999Z,5.60
2022-11-21T02:11:51.161Z,5.66
2022-11-21T02:14:18.984Z,5.65
2022-11-21T02:16:49.883Z,5.68
2022-11-21T02:19:40.131Z,5.59
2022-11-21T02:22:12.140Z,5.61
2022-11-21T02:25:00.849Z,5.69
2022-11-21T02:27:29.282Z,5.70
2022-11-21T02:29:57.202Z,5.69
2022-11-21T02:32:32.704Z,5.79
2022-11-21T02:35:00.664Z,5.88
2022-11-21T02:37:29.581Z,5.84
2022-11-21T02:40:01.661Z,5.84
2022-11-21T02:42:38.240Z,5.87
2022-11-21T02:45:12.007Z,5.85
2022-11-21T02:47:43.059Z,5.84
2022-11-21T02:50:15.640Z,5.80
2022-11-21T02:52:43.215Z,5.86
2022-11-21T02:55:15.713Z,5.86
2022-11-21T02:57:43.365Z,5.97
2022-11-21T03:00:11.927Z,5.99
2022-11-21T03:02:40.021Z,5.96
2022-11-21T03:05:09.583Z,5.88
2022-11-21T03:07:37.563Z,5.89
2022-11-21T03:10:05.713Z,5.91
2022-11-21T03:12:36.727Z,5.96
2022-11-21T03:15:08.940Z,5.93
2022-11-21T03:17:36.776Z,5.89
2022-11-21T03:20:05.307Z,5.88
2022-11-21T03:22:36.242Z,5.85
2022-11-21T03:25:04.342Z,5.82
2022-11-21T03:27:31.964Z,5.87
2022-11-21T03:29:59.594Z,5.90
2022-11-21T03:32:27.734Z,5.86
2022-11-21T03:34:55.395Z,5.72
2022-11-21T03:37:22.886Z,5.78
2022-11-21T03:39:50.535Z,5.68
2022-11-21T03:42:18.085Z,5.57
2022-11-21T03:44:45.909Z,5.48
2022-11-21T03:47:13.736Z,5.31
2022-11-21T03:49:41.873Z,5.11
2022-11-21T03:52:09.653Z,5.01
2022-11-21T03:54:37.410Z,4.99
2022-11-21T03:57:05.271Z,4.96
2022-11-21T03:59:33.607Z,4.91
2022-11-21T04:02:01.806Z,4.91
2022-11-21T04:04:30.293Z,4.89
2022-11-21T04:06:58.024Z,4.82
2022-11-21T04:09:25.874Z,4.84
2022-11-21T04:11:53.420Z,4.73
2022-11-21T04:14:20.980Z,4.82
2022-11-21T04:16:48.600Z,4.76
2022-11-21T04:19:16.275Z,4.66
2022-11-21T04:21:43.937Z,4.72
2022-11-21T04:24:11.560Z,4.79
2022-11-21T04:26:39.090Z,4.72
2022-11-21T04:29:06.807Z,4.70
2022-11-21T04:31:34.387Z,4.67
2022-11-21T04:34:02.542Z,4.68
2022-11-21T04:36:30.141Z,4.69
2022-11-21T04:38:57.761Z,4.64
2022-11-21T04:41:25.456Z,4.68
2022-11-21T04:43:53.616Z,4.70
2022-11-21T04:46:21.369Z,4.73
2022-11-21T04:48:50.046Z,4.76
2022-11-21T04:51:17.541Z,4.78
2022-11-21T04:53:45.344Z,4.81
2022-11-21T04:56:16.498Z,4.85
2022-11-21T04:58:45.362Z,4.86
2022-11-21T05:01:13.081Z,4.88
2022-11-21T05:03:40.719Z,4.89
2022-11-21T05:06:08.497Z,4.89
2022-11-21T05:08:36.055Z,4.87
2022-11-21T05:11:22.409Z,4.87
2022-11-21T05:13:53.809Z,4.99
2022-11-21T05:16:21.385Z,5.07
2022-11-21T05:18:49.034Z,4.96
2022-11-21T05:21:18.526Z,5.03
2022-11-21T05:23:47.385Z,5.17
2022-11-21T05:26:15.206Z,5.20
2022-11-21T05:28:42.997Z,5.23
2022-11-21T05:31:10.609Z,5.21
2022-11-21T05:33:38.388Z,5.22
2022-11-21T05:36:06.070Z,5.26
2022-11-21T05:38:33.952Z,5.24
2022-11-21T05:41:02.030Z,5.26
2022-11-21T05:43:55.842Z,5.35
2022-11-21T05:46:25.781Z,5.38
2022-11-21T05:48:54.740Z,5.36
2022-11-21T05:51:22.582Z,5.41
2022-11-21T05:53:50.144Z,5.33
2022-11-21T05:56:19.706Z,5.37
2022-11-21T05:58:47.290Z,5.37
2022-11-21T06:01:36.733Z,5.31
2022-11-21T06:04:04.705Z,5.29
2022-11-21T06:06:32.540Z,5.32
2022-11-21T06:09:01.575Z,5.44
2022-11-21T06:11:29.317Z,5.42
2022-11-21T06:13:57.782Z,5.46
2022-11-21T06:16:25.820Z,5.53
2022-11-21T06:19:13.203Z,5.56
2022-11-21T06:21:41.022Z,5.56
2022-11-21T06:24:09.125Z,5.56
2022-11-21T06:26:36.895Z,5.58
2022-11-21T06:29:04.535Z,5.60
2022-11-21T06:31:34.571Z,5.61
2022-11-21T06:34:02.155Z,5.63
2022-11-21T06:36:30.056Z,5.63
2022-11-21T06:38:57.747Z,5.59
2022-11-21T06:41:30.286Z,5.53
2022-11-21T06:44:01.491Z,5.60
2022-11-21T06:46:29.646Z,5.67
2022-11-21T06:48:57.367Z,5.81
2022-11-21T06:51:26.288Z,5.78
2022-11-21T06:53:56.442Z,5.87
2022-11-21T06:56:29.288Z,5.83
2022-11-21T06:58:57.675Z,5.82
2022-11-21T07:01:25.699Z,5.81
2022-11-21T07:03:54.110Z,5.77
2022-11-21T07:06:22.334Z,5.73
2022-11-21T07:11:43.863Z,5.73
2022-11-21T07:14:12.046Z,5.77
2022-11-21T07:16:42.241Z,5.95
2022-11-21T07:19:09.893Z,5.92
2022-11-21T07:21:37.777Z,5.95
2022-11-21T07:24:07.156Z,6.04
2022-11-21T07:26:34.725Z,6.08
2022-11-21T07:29:02.283Z,6.13
2022-11-21T07:31:29.803Z,6.24
2022-11-21T07:33:57.441Z,6.31
2022-11-21T07:36:25.169Z,6.38
2022-11-21T07:38:52.940Z,6.46
2022-11-21T07:41:21.189Z,6.56
2022-11-21T07:43:48.985Z,6.56
2022-11-21T07:46:16.601Z,6.44
2022-11-21T07:48:44.353Z,6.51
2022-11-21T07:51:11.951Z,6.53
2022-11-21T07:53:40.164Z,6.54
2022-11-21T07:56:09.854Z,6.57
2022-11-21T07:58:37.647Z,6.42
2022-11-21T08:01:06.943Z,6.38
2022-11-21T08:03:34.721Z,6.23
2022-11-21T08:06:06.182Z,6.22
2022-11-21T08:08:34.837Z,6.28
2022-11-21T08:11:11.475Z,6.25
2022-11-21T08:13:41.205Z,6.28
2022-11-21T08:16:09.383Z,6.19
2022-11-21T08:18:36.944Z,6.16
2022-11-21T08:21:05.180Z,6.12
2022-11-21T08:23:33.234Z,6.14
2022-11-21T08:27:09.893Z,6.08
2022-11-21T08:29:42.911Z,6.18
2022-11-21T08:32:10.710Z,6.25
2022-11-21T08:34:38.477Z,6.30
2022-11-21T08:37:06.389Z,6.45
2022-11-21T08:39:34.592Z,6.46
2022-11-21T08:42:03.375Z,6.52
2022-11-21T08:44:35.142Z,6.48
2022-11-21T08:47:02.923Z,6.41
2022-11-21T08:49:30.679Z,6.43
2022-11-21T08:51:59.400Z,6.43
2022-11-21T08:54:27.405Z,6.35
2022-11-21T08:56:55.213Z,6.20
2022-11-21T08:59:22.960Z,6.27
2022-11-21T09:01:50.767Z,6.29
2022-11-21T09:04:18.751Z,6.43
2022-11-21T09:06:46.618Z,6.46
2022-11-21T09:09:14.159Z,6.48
2022-11-21T09:11:42.618Z,6.56
2022-11-21T09:14:28.846Z,6.57
2022-11-21T09:17:15.474Z,6.65
2022-11-21T09:19:43.345Z,6.65
2022-11-21T09:22:10.942Z,6.69
2022-11-21T09:24:38.518Z,6.64
2022-11-21T09:27:08.054Z,6.66
2022-11-21T09:29:35.672Z,6.72
2022-11-21T09:32:03.430Z,6.73
2022-11-21T09:34:31.903Z,6.79
2022-11-21T09:36:59.486Z,6.68
2022-11-21T09:39:27.555Z,6.73
2022-11-21T09:42:10.309Z,6.56
2022-11-21T09:44:55.836Z,6.70
2022-11-21T09:47:32.950Z,6.56
2022-11-21T09:50:04.154Z,6.49
2022-11-21T09:52:41.020Z,6.47
2022-11-21T09:55:32.953Z,6.53
2022-11-21T09:58:05.206Z,6.73
2022-11-21T10:00:33.105Z,6.78
2022-11-21T10:03:01.569Z,6.84
2022-11-21T10:05:58.021Z,6.85
2022-11-21T10:08:35.388Z,6.90
2022-11-21T10:11:33.582Z,6.88
2022-11-21T10:14:09.957Z,6.92
2022-11-21T10:17:17.796Z,7.03
2022-11-21T10:20:00.511Z,7.04
2022-11-21T10:22:42.115Z,7.06
2022-11-21T10:25:28.411Z,6.97
2022-11-21T10:28:11.116Z,7.03
2022-11-21T10:30:44.254Z,7.03
2022-11-21T10:33:30.938Z,7.04
2022-11-21T10:36:09.372Z,7.03
2022-11-21T10:38:40.683Z,7.00
2022-11-21T10:41:24.955Z,7.03
2022-11-21T10:44:55.561Z,6.97
2022-11-21T10:47:28.981Z,6.81
2022-11-21T10:50:32.912Z,6.87
2022-11-21T10:53:24.925Z,6.89
2022-11-21T10:56:02.972Z,6.77
2022-11-21T10:58:35.227Z,6.83
2022-11-21T11:01:03.099Z,6.83
2022-11-21T11:03:32.939Z,6.90
2022-11-21T11:06:00.539Z,6.89
2022-11-21T11:08:28.767Z,6.96
2022-11-21T11:11:02.626Z,6.99
2022-11-21T11:13:45.866Z,7.06
2022-11-21T11:16:19.255Z,7.09
2022-11-21T11:19:00.126Z,7.08
2022-11-21T11:21:47.837Z,7.17
2022-11-21T11:24:15.437Z,7.26
2022-11-21T11:26:49.519Z,7.31
2022-11-21T11:29:21.677Z,7.31
2022-11-21T11:32:10.546Z,7.32
2022-11-21T11:34:53.499Z,7.33
2022-11-21T11:37:41.320Z,7.32
2022-11-21T11:40:19.081Z,7.25
2022-11-21T11:43:31.688Z,7.20
2022-11-21T11:46:23.340Z,7.25
2022-11-21T11:49:19.170Z,7.28
2022-11-21T11:51:51.486Z,7.38
2022-11-21T11:54:24.495Z,7.42
2022-11-21T11:56:54.008Z,7.38
2022-11-21T12:00:05.023Z,7.46
2022-11-21T12:03:11.962Z,7.50
2022-11-21T12:05:51.842Z,7.35
2022-11-21T12:08:47.494Z,7.36
2022-11-21T12:11:41.185Z,7.43
2022-11-21T12:14:57.819Z,7.45
2022-11-21T12:17:56.129Z,7.34
2022-11-21T12:20:34.606Z,7.31
2022-11-21T12:23:04.977Z,7.25
2022-11-21T12:25:51.458Z,7.25
2022-11-21T12:28:30.840Z,7.24
2022-11-21T12:31:04.159Z,7.22
2022-11-21T12:33:38.303Z,7.20
2022-11-21T12:36:34.259Z,7.19
2022-11-21T12:39:23.527Z,7.26
2022-11-21T12:42:31.067Z,7.36
2022-11-21T12:45:18.680Z,7.44
2022-11-21T12:48:26.534Z,7.49
2022-11-21T12:51:49.993Z,7.53
2022-11-21T12:54:42.355Z,7.54
2022-11-21T12:57:14.579Z,7.50
2022-11-21T13:00:25.321Z,7.47
2022-11-21T13:03:02.911Z,7.52
2022-11-21T13:05:36.152Z,7.39
2022-11-21T13:08:25.757Z,7.44
2022-11-21T13:11:59.861Z,7.54
2022-11-21T13:14:39.300Z,7.59
2022-11-21T13:17:30.970Z,7.61
2022-11-21T13:20:05.406Z,7.62
2022-11-21T13:22:36.301Z,7.59
2022-11-21T13:25:31.997Z,7.58
2022-11-21T13:28:12.106Z,7.62
2022-11-21T13:31:01.729Z,7.64
2022-11-21T13:33:35.553Z,7.77
2022-11-21T13:36:07.968Z,7.67
2022-11-21T13:38:50.879Z,7.73
2022-11-21T13:41:55.280Z,7.79
2022-11-21T13:44:32.163Z,7.87
2022-11-21T13:47:00.843Z,7.93
2022-11-21T13:49:40.145Z,7.94
2022-11-21T13:52:20.393Z,7.97
2022-11-21T13:55:09.656Z,8.04
2022-11-21T13:57:46.056Z,8.01
2022-11-21T14:00:49.546Z,7.94
2022-11-21T14:03:31.559Z,7.93
2022-11-21T14:06:20.021Z,7.94
2022-11-21T14:09:15.236Z,8.07
2022-11-21T14:11:54.963Z,8.12
2022-11-21T14:14:27.767Z,8.13
2022-11-21T14:17:05.424Z,8.15
2022-11-21T14:19:34.794Z,8.09
2022-11-21T14:22:02.582Z,8.15
2022-11-21T14:24:32.062Z,8.18
2022-11-21T14:26:59.803Z,8.17
2022-11-21T14:29:41.180Z,8.21
2022-11-21T14:32:15.621Z,8.21
2022-11-21T14:34:43.475Z,8.22
2022-11-21T14:37:13.351Z,8.20
2022-11-21T17:53:52.860Z,13.13
2022-11-21T17:56:23.482Z,13.11
2022-11-21T17:58:52.025Z,13.11
2022-11-21T18:01:20.551Z,13.30
2022-11-21T18:03:58.370Z,13.30
2022-11-21T18:06:28.600Z,13.32
2022-11-21T18:08:59.652Z,13.36
2022-11-21T18:11:39.224Z,13.28
2022-11-21T18:14:09.865Z,13.22
2022-11-21T18:16:47.554Z,13.30
2022-11-21T18:19:18.744Z,13.27
2022-11-21T18:21:46.578Z,13.39
2022-11-21T18:24:14.204Z,13.37
2022-11-21T18:26:41.822Z,13.32
2022-11-21T18:29:35.308Z,13.29
2022-11-21T18:31:57.954Z,13.35
2022-11-21T18:34:25.711Z,13.36
2022-11-21T18:36:54.349Z,13.41
2022-11-21T18:39:25.029Z,13.48
2022-11-21T18:41:52.617Z,13.52
2022-11-21T18:44:22.307Z,13.58
2022-11-21T18:46:50.883Z,13.60
2022-11-21T18:49:18.735Z,13.67
2022-11-21T18:51:46.518Z,13.73
2022-11-21T18:54:14.125Z,13.75
2022-11-21T18:56:41.728Z,13.79
2022-11-21T18:59:09.580Z,13.85
2022-11-21T19:01:39.763Z,13.83
2022-11-21T19:04:07.953Z,13.75
2022-11-21T19:06:35.760Z,13.76
2022-11-21T19:09:03.570Z,13.81
2022-11-21T19:11:31.368Z,13.79
2022-11-21T19:14:00.847Z,13.90
2022-11-21T19:16:34.501Z,13.90
2022-11-21T19:21:54.500Z,13.82
2022-11-21T19:24:22.220Z,13.78
2022-11-21T19:26:50.663Z,13.71
2022-11-21T19:29:18.979Z,13.64
2022-11-21T19:31:46.789Z,13.65
2022-11-21T19:34:15.467Z,13.62
2022-11-21T19:36:44.260Z,13.62
2022-11-21T19:39:12.108Z,13.62
2022-11-21T19:41:40.701Z,13.60
2022-11-21T19:44:08.906Z,13.57
2022-11-21T19:46:38.850Z,13.48
2022-11-21T19:49:08.406Z,13.40
2022-11-21T19:51:39.356Z,13.40
2022-11-21T19:54:08.344Z,13.31
2022-11-21T19:56:37.079Z,13.32
2022-11-21T19:59:05.003Z,13.27
2022-11-21T20:01:34.352Z,13.15
2022-11-21T20:04:05.552Z,13.12
2022-11-21T20:06:36.043Z,13.10
2022-11-21T20:09:03.639Z,13.09
2022-11-21T20:11:33.367Z,13.11
2022-11-21T20:14:03.152Z,13.08
2022-11-21T20:16:35.658Z,13.03
2022-11-21T20:19:17.839Z,12.97
2022-11-21T20:21:46.241Z,12.96
2022-11-21T20:24:14.259Z,12.92
2022-11-21T20:26:42.533Z,12.95
2022-11-21T20:29:13.078Z,12.93
2022-11-21T20:31:41.036Z,13.01
2022-11-21T20:34:15.157Z,12.93
2022-11-21T20:36:43.297Z,12.90
2022-11-21T20:39:16.818Z,12.89
2022-11-21T20:41:45.801Z,12.97
2022-11-21T20:47:06.430Z,13.08
2022-11-21T20:49:35.101Z,13.09
2022-11-21T20:53:43.822Z,13.02
2022-11-21T20:54:50.760Z,13.02
2022-11-21T20:57:18.790Z,13.07
2022-11-21T20:59:46.399Z,13.10
2022-11-21T21:02:26.451Z,13.13
2022-11-21T21:04:54.014Z,13.12
2022-11-21T21:07:21.708Z,13.07
2022-11-21T21:09:49.294Z,13.09
2022-11-21T21:12:17.057Z,13.09
2022-11-21T21:14:44.648Z,13.19
2022-11-21T21:17:12.290Z,13.22
2022-11-21T21:19:40.469Z,13.15
2022-11-21T21:22:09.188Z,13.14
2022-11-21T21:24:37.033Z,13.19
2022-11-21T21:27:05.010Z,13.17
2022-11-21T21:29:33.135Z,13.19
2022-11-21T21:32:01.092Z,13.16
2022-11-21T21:34:29.227Z,13.11
2022-11-21T21:36:57.334Z,13.06
2022-11-21T21:39:25.278Z,13.03
2022-11-21T21:41:53.193Z,13.03
2022-11-21T21:44:21.004Z,12.97
2022-11-21T21:46:48.825Z,12.97
2022-11-21T21:49:16.415Z,12.96
2022-11-21T21:51:44.099Z,13.01
2022-11-21T21:54:20.333Z,13.02
2022-11-21T21:56:49.633Z,13.06
2022-11-21T21:59:18.415Z,13.07
2022-11-21T22:01:46.969Z,13.08
2022-11-21T22:04:14.939Z,13.11
2022-11-21T22:06:43.411Z,13.11
2022-11-21T22:09:11.677Z,13.13
2022-11-21T22:11:39.673Z,13.10
2022-11-21T22:14:14.359Z,13.08
2022-11-21T22:16:44.287Z,13.02
2022-11-21T22:19:12.922Z,12.98
2022-11-21T22:21:40.567Z,13.00
2022-11-21T22:24:29.766Z,13.03
2022-11-21T22:26:59.276Z,13.13
2022-11-21T22:29:27.844Z,13.14
2022-11-21T22:32:01.931Z,13.07
2022-11-21T22:34:30.186Z,13.05
2022-11-21T22:36:57.761Z,12.99
2022-11-21T22:39:25.945Z,12.98
2022-11-21T22:41:57.076Z,12.88
2022-11-21T22:44:27.558Z,12.89
2022-11-21T22:46:55.335Z,12.95
2022-11-21T22:49:22.864Z,12.93
2022-11-21T22:51:50.511Z,12.93
2022-11-21T22:54:19.756Z,12.87
2022-11-21T22:56:47.314Z,12.85
2022-11-21T22:59:22.607Z,12.86
2022-11-21T23:01:50.701Z,12.85
2022-11-21T23:04:18.245Z,12.85
